DFNPT EDDV-EDDH
Flight info
| Callsign | DFNPT |
|---|---|
| Flight time | 0h 33m |
| Altitude | |
| Route | |
| Aircraft | PA46 |
Departure
| Time | 2026-04-26 16:46 |
|---|---|
| Airport | Hannover Airport (EDDV) |
Arrival
| Time | 2026-04-26 17:19 |
|---|---|
| Airport | Hamburg Helmut Schmidt Airport (EDDH) |
| Time | Latitude | Longitude | Altitude | Speed | Heading |
|---|---|---|---|---|---|
| 2026-04-26 16:40 | 52.46331 | 9.69340 | 177 ft | 0 kts | 344° |
| 2026-04-26 16:42 | 52.46332 | 9.69340 | 177 ft | 0 kts | 344° |
| 2026-04-26 16:42 | 52.46327 | 9.69304 | 176 ft | 5 kts | 264° |
| 2026-04-26 16:42 | 52.46348 | 9.69273 | 177 ft | 3 kts | 337° |
| 2026-04-26 16:42 | 52.46362 | 9.69269 | 178 ft | 4 kts | 19° |
| 2026-04-26 16:43 | 52.46381 | 9.69315 | 179 ft | 8 kts | 69° |
| 2026-04-26 16:43 | 52.46400 | 9.69394 | 180 ft | 6 kts | 68° |
| 2026-04-26 16:43 | 52.46415 | 9.69459 | 181 ft | 6 kts | 69° |
| 2026-04-26 16:43 | 52.46434 | 9.69534 | 180 ft | 9 kts | 66° |
| 2026-04-26 16:44 | 52.46464 | 9.69654 | 175 ft | 14 kts | 70° |
| 2026-04-26 16:44 | 52.46498 | 9.69804 | 172 ft | 15 kts | 69° |
| 2026-04-26 16:44 | 52.46551 | 9.69931 | 170 ft | 13 kts | 18° |
| 2026-04-26 16:44 | 52.46632 | 9.69949 | 173 ft | 10 kts | 1° |
| 2026-04-26 16:45 | 52.46688 | 9.69894 | 173 ft | 10 kts | 302° |
| 2026-04-26 16:45 | 52.46700 | 9.69794 | 172 ft | 2 kts | 270° |
| 2026-04-26 16:45 | 52.46700 | 9.69792 | 172 ft | 1 kts | 271° |
| 2026-04-26 16:45 | 52.46704 | 9.69615 | 173 ft | 40 kts | 272° |
| 2026-04-26 16:46 | 52.46732 | 9.68820 | 193 ft | 95 kts | 273° |
| 2026-04-26 16:46 | 52.46738 | 9.67621 | 465 ft | 112 kts | 274° |
| 2026-04-26 16:46 | 52.46782 | 9.66204 | 797 ft | 136 kts | 274° |
| 2026-04-26 16:46 | 52.46896 | 9.64627 | 1405 ft | 139 kts | 293° |
| 2026-04-26 16:47 | 52.47559 | 9.63544 | 1873 ft | 145 kts | 337° |
| 2026-04-26 16:47 | 52.48622 | 9.63546 | 2089 ft | 169 kts | 12° |
| 2026-04-26 16:47 | 52.49659 | 9.64707 | 2035 ft | 192 kts | 47° |
| 2026-04-26 16:47 | 52.50242 | 9.66727 | 1877 ft | 200 kts | 73° |
| 2026-04-26 16:48 | 52.50429 | 9.68926 | 1850 ft | 193 kts | 91° |
| 2026-04-26 16:48 | 52.50179 | 9.71077 | 1731 ft | 191 kts | 108° |
| 2026-04-26 16:48 | 52.49699 | 9.73124 | 1512 ft | 190 kts | 104° |
| 2026-04-26 16:48 | 52.49779 | 9.75055 | 1687 ft | 161 kts | 55° |
| 2026-04-26 16:49 | 52.50512 | 9.76399 | 1571 ft | 162 kts | 37° |
| 2026-04-26 16:49 | 52.51403 | 9.77577 | 1464 ft | 164 kts | 32° |
| 2026-04-26 16:49 | 52.52307 | 9.78673 | 1462 ft | 160 kts | 33° |
| 2026-04-26 16:49 | 52.53163 | 9.79814 | 1472 ft | 156 kts | 29° |
| 2026-04-26 16:50 | 52.54124 | 9.80404 | 1594 ft | 143 kts | 358° |
| 2026-04-26 16:50 | 52.55104 | 9.80054 | 1453 ft | 147 kts | 336° |
| 2026-04-26 16:50 | 52.56033 | 9.79419 | 1600 ft | 142 kts | 336° |
| 2026-04-26 16:50 | 52.56958 | 9.78868 | 1680 ft | 143 kts | 339° |
| 2026-04-26 16:51 | 52.57851 | 9.78391 | 2004 ft | 129 kts | 337° |
| 2026-04-26 16:51 | 52.58674 | 9.77864 | 2204 ft | 131 kts | 336° |
| 2026-04-26 16:51 | 52.59557 | 9.77288 | 2224 ft | 141 kts | 336° |
| 2026-04-26 16:51 | 52.60499 | 9.76678 | 2215 ft | 148 kts | 336° |
| 2026-04-26 16:52 | 52.61471 | 9.76051 | 2217 ft | 151 kts | 336° |
| 2026-04-26 16:52 | 52.62141 | 9.75637 | 2213 ft | 153 kts | 341° |
| 2026-04-26 16:52 | 52.63564 | 9.75879 | 2217 ft | 160 kts | 9° |
| 2026-04-26 16:52 | 52.64647 | 9.76337 | 2215 ft | 162 kts | 9° |
| 2026-04-26 16:53 | 52.65745 | 9.76802 | 2218 ft | 163 kts | 9° |
| 2026-04-26 16:53 | 52.66874 | 9.77273 | 2216 ft | 170 kts | 8° |
| 2026-04-26 16:53 | 52.68058 | 9.77510 | 2202 ft | 171 kts | 0° |
| 2026-04-26 16:53 | 52.69220 | 9.77671 | 2207 ft | 168 kts | 0° |
| 2026-04-26 16:54 | 52.70383 | 9.77764 | 2210 ft | 166 kts | 352° |
| 2026-04-26 16:54 | 52.71522 | 9.77454 | 2206 ft | 164 kts | 341° |
| 2026-04-26 16:54 | 52.72622 | 9.76965 | 2214 ft | 163 kts | 345° |
| 2026-04-26 16:54 | 52.73777 | 9.76841 | 2202 ft | 168 kts | 359° |
| 2026-04-26 16:55 | 52.74937 | 9.77076 | 2214 ft | 170 kts | 3° |
| 2026-04-26 16:55 | 52.76101 | 9.77370 | 2197 ft | 169 kts | 5° |
| 2026-04-26 16:55 | 52.77257 | 9.77689 | 2195 ft | 168 kts | 4° |
| 2026-04-26 16:55 | 52.78403 | 9.77972 | 2190 ft | 166 kts | 3° |
| 2026-04-26 16:56 | 52.80687 | 9.78547 | 2197 ft | 167 kts | 4° |
| 2026-04-26 16:56 | 52.81812 | 9.78836 | 2198 ft | 165 kts | 4° |
| 2026-04-26 16:56 | 52.82948 | 9.79128 | 2195 ft | 165 kts | 3° |
| 2026-04-26 16:57 | 52.84085 | 9.79410 | 2190 ft | 165 kts | 3° |
| 2026-04-26 16:57 | 52.85221 | 9.79698 | 2191 ft | 164 kts | 4° |
| 2026-04-26 16:57 | 52.87509 | 9.80279 | 2208 ft | 170 kts | 3° |
| 2026-04-26 16:58 | 52.88673 | 9.80580 | 2203 ft | 170 kts | 3° |
| 2026-04-26 16:58 | 52.89440 | 9.80781 | 2193 ft | 167 kts | 3° |
| 2026-04-26 16:58 | 52.92108 | 9.81455 | 2207 ft | 167 kts | 3° |
| 2026-04-26 16:59 | 52.93258 | 9.81745 | 2206 ft | 168 kts | 3° |
| 2026-04-26 16:59 | 52.95560 | 9.82338 | 2199 ft | 164 kts | 3° |
| 2026-04-26 17:00 | 52.97816 | 9.82908 | 2194 ft | 166 kts | 2° |
| 2026-04-26 17:00 | 53.00096 | 9.83493 | 2202 ft | 166 kts | 2° |
| 2026-04-26 17:00 | 53.01241 | 9.83782 | 2199 ft | 166 kts | 2° |
| 2026-04-26 17:01 | 53.02385 | 9.84082 | 2200 ft | 165 kts | 2° |
| 2026-04-26 17:01 | 53.03519 | 9.84368 | 2211 ft | 166 kts | 2° |
| 2026-04-26 17:01 | 53.04668 | 9.84663 | 2195 ft | 167 kts | 2° |
| 2026-04-26 17:01 | 53.05811 | 9.84965 | 2204 ft | 166 kts | 2° |
| 2026-04-26 17:02 | 53.06957 | 9.85256 | 2191 ft | 166 kts | 1° |
| 2026-04-26 17:02 | 53.08096 | 9.85551 | 2194 ft | 164 kts | 2° |
| 2026-04-26 17:02 | 53.09229 | 9.85833 | 2206 ft | 167 kts | 2° |
| 2026-04-26 17:02 | 53.10367 | 9.86124 | 2193 ft | 169 kts | 3° |
| 2026-04-26 17:03 | 53.11532 | 9.86425 | 2195 ft | 170 kts | 2° |
| 2026-04-26 17:03 | 53.12705 | 9.86729 | 2193 ft | 170 kts | 3° |
| 2026-04-26 17:03 | 53.13867 | 9.87030 | 2185 ft | 168 kts | 2° |
| 2026-04-26 17:03 | 53.15012 | 9.87326 | 2187 ft | 165 kts | 1° |
| 2026-04-26 17:04 | 53.16140 | 9.87616 | 2187 ft | 163 kts | 1° |
| 2026-04-26 17:04 | 53.17261 | 9.87903 | 2188 ft | 163 kts | 1° |
| 2026-04-26 17:04 | 53.18385 | 9.88188 | 2194 ft | 164 kts | 1° |
| 2026-04-26 17:04 | 53.19464 | 9.88872 | 2195 ft | 176 kts | 33° |
| 2026-04-26 17:05 | 53.20329 | 9.90338 | 2195 ft | 177 kts | 36° |
| 2026-04-26 17:05 | 53.21297 | 9.91512 | 2190 ft | 172 kts | 21° |
| 2026-04-26 17:05 | 53.22410 | 9.92132 | 2187 ft | 166 kts | 6° |
| 2026-04-26 17:05 | 53.23549 | 9.92462 | 2187 ft | 166 kts | 2° |
| 2026-04-26 17:06 | 53.24690 | 9.92798 | 2192 ft | 166 kts | 4° |
| 2026-04-26 17:06 | 53.25833 | 9.93127 | 2190 ft | 167 kts | 3° |
| 2026-04-26 17:06 | 53.26973 | 9.93466 | 2189 ft | 166 kts | 4° |
| 2026-04-26 17:06 | 53.28123 | 9.93807 | 2197 ft | 168 kts | 4° |
| 2026-04-26 17:07 | 53.29261 | 9.94153 | 2195 ft | 165 kts | 4° |
| 2026-04-26 17:07 | 53.30390 | 9.94487 | 2197 ft | 165 kts | 3° |
| 2026-04-26 17:07 | 53.31525 | 9.94823 | 2194 ft | 166 kts | 4° |
| 2026-04-26 17:07 | 53.32659 | 9.95164 | 2200 ft | 166 kts | 4° |
| 2026-04-26 17:08 | 53.33783 | 9.95503 | 2198 ft | 165 kts | 4° |
| 2026-04-26 17:08 | 53.34909 | 9.95838 | 2195 ft | 164 kts | 4° |
| 2026-04-26 17:08 | 53.36024 | 9.96170 | 2197 ft | 164 kts | 3° |
| 2026-04-26 17:08 | 53.37142 | 9.96510 | 2196 ft | 162 kts | 2° |
| 2026-04-26 17:09 | 53.38252 | 9.96846 | 2210 ft | 164 kts | 2° |
| 2026-04-26 17:09 | 53.39005 | 9.97065 | 2213 ft | 167 kts | 2° |
| 2026-04-26 17:09 | 53.40548 | 9.97523 | 2204 ft | 169 kts | 4° |
| 2026-04-26 17:09 | 53.41715 | 9.97872 | 2100 ft | 175 kts | 4° |
| 2026-04-26 17:10 | 53.42901 | 9.98238 | 2019 ft | 170 kts | 4° |
| 2026-04-26 17:10 | 53.44040 | 9.98573 | 2001 ft | 162 kts | 2° |
| 2026-04-26 17:10 | 53.45117 | 9.98907 | 2014 ft | 154 kts | 3° |
| 2026-04-26 17:10 | 53.46150 | 9.99071 | 2018 ft | 150 kts | 354° |
| 2026-04-26 17:11 | 53.47195 | 9.99095 | 2020 ft | 149 kts | 354° |
| 2026-04-26 17:11 | 53.48232 | 9.99155 | 2022 ft | 150 kts | 355° |
| 2026-04-26 17:11 | 53.49272 | 9.99223 | 2004 ft | 148 kts | 355° |
| 2026-04-26 17:11 | 53.50289 | 9.99276 | 2007 ft | 145 kts | 354° |
| 2026-04-26 17:12 | 53.52280 | 9.99686 | 2004 ft | 143 kts | 1° |
| 2026-04-26 17:12 | 53.53266 | 9.99960 | 2008 ft | 144 kts | 1° |
| 2026-04-26 17:13 | 53.55253 | 10.00491 | 2012 ft | 145 kts | 1° |
| 2026-04-26 17:13 | 53.56246 | 10.00748 | 2010 ft | 147 kts | 1° |
| 2026-04-26 17:13 | 53.58269 | 10.01286 | 2015 ft | 149 kts | 4° |
| 2026-04-26 17:14 | 53.59142 | 10.02315 | 2008 ft | 165 kts | 49° |
| 2026-04-26 17:14 | 53.60253 | 10.05698 | 1990 ft | 164 kts | 53° |
| 2026-04-26 17:14 | 53.60494 | 10.07632 | 1855 ft | 178 kts | 92° |
| 2026-04-26 17:15 | 53.58838 | 10.10232 | 1596 ft | 169 kts | 189° |
| 2026-04-26 17:15 | 53.57924 | 10.09383 | 1530 ft | 145 kts | 246° |
| 2026-04-26 17:15 | 53.57839 | 10.07870 | 1529 ft | 127 kts | 294° |
| 2026-04-26 17:16 | 53.58481 | 10.06930 | 1487 ft | 131 kts | 342° |
| 2026-04-26 17:16 | 53.59429 | 10.07192 | 1356 ft | 147 kts | 24° |
| 2026-04-26 17:16 | 53.60304 | 10.08015 | 1403 ft | 137 kts | 9° |
| 2026-04-26 17:16 | 53.61248 | 10.08273 | 1426 ft | 139 kts | 1° |
| 2026-04-26 17:17 | 53.62262 | 10.08482 | 1362 ft | 151 kts | 0° |
| 2026-04-26 17:17 | 53.63286 | 10.08620 | 1473 ft | 144 kts | 351° |
| 2026-04-26 17:17 | 53.64134 | 10.08059 | 1491 ft | 125 kts | 317° |
| 2026-04-26 17:17 | 53.64616 | 10.06878 | 1424 ft | 123 kts | 296° |
| 2026-04-26 17:18 | 53.64939 | 10.05582 | 1368 ft | 117 kts | 291° |
| 2026-04-26 17:18 | 53.65122 | 10.04277 | 1096 ft | 116 kts | 281° |
| 2026-04-26 17:18 | 53.65018 | 10.02905 | 702 ft | 124 kts | 251° |
| 2026-04-26 17:18 | 53.64471 | 10.01727 | 429 ft | 128 kts | 234° |
| 2026-04-26 17:19 | 53.63437 | 9.99649 | 47 ft | 95 kts | 238° |
| 2026-04-26 17:19 | 53.63073 | 9.98892 | 41 ft | 71 kts | 228° |
| 2026-04-26 17:19 | 53.62857 | 9.98508 | 39 ft | 24 kts | 199° |
| 2026-04-26 17:20 | 53.62753 | 9.98473 | 40 ft | 7 kts | 185° |
| 2026-04-26 17:20 | 53.62734 | 9.98471 | 40 ft | 6 kts | 179° |
| 2026-04-26 17:20 | 53.62702 | 9.98496 | 42 ft | 6 kts | 125° |
| 2026-04-26 17:20 | 53.62709 | 9.98591 | 42 ft | 10 kts | 50° |
| 2026-04-26 17:21 | 53.62751 | 9.98676 | 42 ft | 7 kts | 52° |
| 2026-04-26 17:21 | 53.62725 | 9.98729 | 42 ft | 5 kts | 123° |
| 2026-04-26 17:21 | 53.62689 | 9.98784 | 42 ft | 9 kts | 154° |
| 2026-04-26 17:21 | 53.62681 | 9.98790 | 42 ft | 0 kts | 154° |